首页
METAR-TAF:

METAR-TAF

机场 :

仁川国际机场, 大韩民国

仁川國際機場

纬度: 37-28N, 经度: 126-27E, 海拔: 7米

当前天气观测

该预报发布于17分钟前的03:00 UTC
风速6节,风向,在南转南东西南之间变化
温度 5°C
湿度 70%
气压 1023 hPa
能見度: 8000
少量云层高于3000英尺

METAR: RKSI 200300Z 18006KT 150V230 8000 FEW030 05/M00 Q1023 NOSIG

时间: 12:17 (03:17 UTC)

预报

该预报发布于4小时和17分钟前的23:00 UTC
预报有效从20日的 00点(UTC)到 21日的 06点(UTC)
风速6节,风向东南
能見度: 6000
多云层高于3000英尺
成为
从 20日的 02点(UTC)到 20日的 03点(UTC)
风速6节,风向西转西北
成为
从 20日的 11点(UTC)到 20日的 12点(UTC)
风速10节,风向
成为
从 20日的 14点(UTC)到 20日的 15点(UTC)
风速6节,风向东北
成为
从 21日的 04点(UTC)到 21日的 05点(UTC)
风速5节,风向西转西南

TAF: RKSI 192300Z 2000/2106 14006KT 6000 BKN030 TX05/2005Z TNM04/2021Z TX03/2105Z BECMG 2002/2003 29006KT NSC BECMG 2011/2012 35010KT BECMG 2014/2015 05006KT BECMG 2104/2105 24005KT

超过4000个机场的气象观测和天气预报(METAR&TAF报告)。

可查询的气象台以黄色和红色小点在地图上表示。

将鼠标移到小点上方,可查看气象台名称。

然后点击查看天气观测和预报。

如需切换地图:点击带黑十字的绿色按钮放大地图;点击带横线的绿色按钮缩小地图;或者点击绿色箭头查看邻近地区的地图。


METAR-TAF: